createdAt,value
2018-12-08T00:01:46.949Z,3.10
2018-12-08T00:04:16.338Z,2.77
2018-12-08T00:06:45.399Z,2.97
2018-12-08T00:09:14.638Z,2.90
2018-12-08T00:11:43.778Z,2.77
2018-12-08T00:14:12.892Z,2.80
2018-12-08T00:16:42.039Z,3.40
2018-12-08T00:19:11.171Z,3.13
2018-12-08T00:21:40.238Z,3.50
2018-12-08T00:24:09.319Z,2.83
2018-12-08T00:26:38.442Z,2.60
2018-12-08T00:29:07.585Z,2.70
2018-12-08T00:31:43.987Z,3.30
2018-12-08T00:34:13.152Z,3.07
2018-12-08T00:36:42.522Z,3.47
2018-12-08T00:39:11.667Z,3.30
2018-12-08T00:41:40.777Z,3.50
2018-12-08T00:44:09.851Z,3.30
2018-12-08T00:46:38.994Z,2.90
2018-12-08T00:49:08.137Z,3.17
2018-12-08T00:51:37.306Z,2.73
2018-12-08T00:54:07.923Z,2.90
2018-12-08T00:56:37.412Z,3.20
2018-12-08T00:59:06.598Z,3.07
2018-12-08T01:01:35.909Z,2.80
2018-12-08T01:04:05.090Z,3.30
2018-12-08T01:06:34.301Z,2.80
2018-12-08T01:09:05.410Z,2.77
2018-12-08T01:11:34.618Z,2.77
2018-12-08T01:14:04.147Z,2.90
2018-12-08T01:16:33.219Z,3.43
2018-12-08T01:19:02.305Z,2.53
2018-12-08T01:21:31.349Z,3.20
2018-12-08T01:24:00.797Z,2.83
2018-12-08T01:26:29.937Z,2.60
2018-12-08T01:28:59.000Z,3.37
2018-12-08T01:31:28.063Z,2.83
2018-12-08T01:33:57.204Z,2.83
2018-12-08T01:36:26.289Z,2.60
2018-12-08T01:38:55.412Z,3.27
2018-12-08T01:41:24.496Z,2.67
2018-12-08T01:43:53.638Z,2.63
2018-12-08T01:46:22.764Z,2.80
2018-12-08T01:48:51.887Z,2.50
2018-12-08T01:51:20.924Z,3.20
2018-12-08T01:53:50.018Z,2.40
2018-12-08T01:56:19.312Z,2.90
2018-12-08T01:58:49.370Z,2.80
2018-12-08T02:01:18.497Z,3.17
2018-12-08T02:03:47.625Z,2.37
2018-12-08T02:06:16.953Z,3.00
2018-12-08T02:08:46.081Z,2.73
2018-12-08T02:11:15.144Z,2.80
2018-12-08T02:13:44.211Z,2.53
2018-12-08T02:16:13.518Z,2.90
2018-12-08T02:18:42.610Z,3.20
2018-12-08T02:21:11.916Z,3.10
2018-12-08T02:23:41.003Z,2.90
2018-12-08T02:26:10.122Z,3.23
2018-12-08T02:28:42.187Z,3.13
2018-12-08T02:31:11.948Z,2.53
2018-12-08T02:33:41.121Z,2.70
2018-12-08T02:36:10.172Z,2.90
2018-12-08T02:38:39.347Z,2.83
2018-12-08T02:41:09.200Z,2.63
2018-12-08T02:43:38.287Z,3.10
2018-12-08T02:46:07.401Z,2.90
2018-12-08T02:48:36.538Z,2.90
2018-12-08T02:51:05.613Z,2.70
2018-12-08T02:53:34.747Z,2.83
2018-12-08T02:56:04.594Z,2.40
2018-12-08T02:58:34.144Z,2.60
2018-12-08T03:01:03.911Z,2.47
2018-12-08T03:03:32.976Z,2.83
2018-12-08T03:06:02.101Z,2.30
2018-12-08T03:08:32.509Z,2.97
2018-12-08T03:11:01.578Z,3.00
2018-12-08T03:13:30.771Z,2.60
2018-12-08T03:15:59.879Z,2.80
2018-12-08T03:18:28.962Z,2.87
2018-12-08T03:20:58.073Z,3.30
2018-12-08T03:23:27.933Z,2.83
2018-12-08T03:25:57.000Z,2.93
2018-12-08T03:28:26.123Z,2.80
2018-12-08T03:30:55.351Z,2.93
2018-12-08T03:33:24.478Z,2.83
2018-12-08T03:35:53.514Z,3.37
2018-12-08T03:38:22.652Z,2.93
2018-12-08T03:40:51.710Z,3.33
2018-12-08T03:43:20.791Z,3.13
2018-12-08T03:45:49.840Z,3.30
2018-12-08T03:48:18.874Z,3.20
2018-12-08T03:50:47.907Z,2.97
2018-12-08T03:53:17.804Z,3.30
2018-12-08T03:55:46.877Z,2.87
2018-12-08T03:58:15.952Z,3.10
2018-12-08T04:00:45.093Z,2.87
2018-12-08T04:03:14.315Z,2.57
2018-12-08T04:05:44.090Z,2.83
2018-12-08T04:08:13.130Z,2.20
2018-12-08T04:10:42.233Z,2.40
2018-12-08T04:13:11.307Z,2.70
2018-12-08T04:15:40.443Z,3.00
2018-12-08T04:18:09.619Z,3.10
2018-12-08T04:20:38.682Z,2.90
2018-12-08T04:23:07.746Z,2.43
2018-12-08T04:25:36.942Z,2.40
2018-12-08T04:28:06.008Z,2.60
2018-12-08T04:30:35.053Z,2.13
2018-12-08T04:33:04.245Z,2.57
2018-12-08T04:35:33.303Z,2.30
2018-12-08T04:38:02.413Z,2.57
2018-12-08T04:40:31.884Z,2.40
2018-12-08T04:43:00.953Z,2.27
2018-12-08T04:45:30.019Z,2.30
2018-12-08T04:47:59.048Z,2.67
2018-12-08T04:50:28.531Z,2.37
2018-12-08T04:52:57.593Z,2.40
2018-12-08T04:55:33.274Z,2.40
2018-12-08T04:58:02.341Z,2.90
2018-12-08T05:00:31.570Z,2.60
2018-12-08T05:03:00.606Z,3.10
2018-12-08T05:05:29.701Z,3.10
2018-12-08T05:07:58.775Z,2.80
2018-12-08T05:10:27.831Z,3.20
2018-12-08T05:12:56.912Z,2.93
2018-12-08T05:15:26.347Z,3.10
2018-12-08T05:17:55.486Z,3.00
2018-12-08T05:20:24.534Z,3.00
2018-12-08T05:22:53.581Z,3.10
2018-12-08T05:27:57.961Z,2.60
2018-12-08T05:30:27.300Z,2.80
2018-12-08T05:32:56.321Z,3.20
2018-12-08T05:35:25.381Z,3.27
2018-12-08T05:37:54.468Z,3.40
2018-12-08T05:40:23.509Z,3.80
2018-12-08T05:42:52.630Z,2.97
2018-12-08T05:45:21.747Z,3.17
2018-12-08T05:47:50.935Z,2.83
2018-12-08T05:50:20.028Z,3.30
2018-12-08T05:52:49.072Z,2.90
2018-12-08T05:55:18.172Z,3.03
2018-12-08T05:57:47.327Z,2.90
2018-12-08T06:00:16.399Z,2.57
2018-12-08T06:02:45.534Z,2.90
2018-12-08T06:05:14.802Z,2.50
2018-12-08T06:07:44.241Z,2.60
2018-12-08T06:10:13.284Z,2.67
2018-12-08T06:12:42.397Z,3.10
2018-12-08T06:15:11.554Z,3.07
2018-12-08T06:17:40.621Z,3.03
2018-12-08T06:20:09.798Z,2.83
2018-12-08T06:22:38.855Z,3.53
2018-12-08T06:25:11.496Z,2.93
2018-12-08T06:28:46.995Z,3.00
2018-12-08T06:31:16.697Z,3.67
2018-12-08T06:33:45.746Z,3.67
2018-12-08T06:36:14.889Z,3.90
2018-12-08T06:38:44.046Z,3.50
2018-12-08T06:41:13.124Z,3.57
2018-12-08T06:43:42.161Z,3.40
2018-12-08T06:46:11.204Z,3.63
2018-12-08T06:48:40.276Z,4.03
2018-12-08T06:51:09.491Z,3.80
2018-12-08T06:53:38.541Z,4.20
2018-12-08T06:56:07.802Z,3.50
2018-12-08T06:58:36.986Z,3.77
2018-12-08T07:01:06.267Z,3.40
2018-12-08T07:03:35.419Z,3.83
2018-12-08T07:06:04.704Z,4.10
2018-12-08T07:08:33.876Z,4.23
2018-12-08T07:11:03.513Z,3.80
2018-12-08T07:13:33.352Z,4.33
2018-12-08T07:16:02.436Z,4.23
2018-12-08T07:18:31.514Z,3.73
2018-12-08T07:21:00.631Z,3.93
2018-12-08T07:23:29.665Z,4.20
2018-12-08T07:25:58.733Z,3.83
2018-12-08T07:28:27.832Z,4.07
2018-12-08T07:30:56.895Z,3.90
2018-12-08T07:33:25.952Z,3.90
2018-12-08T07:35:55.347Z,4.00
2018-12-08T07:38:24.606Z,4.23
2018-12-08T07:40:53.940Z,4.00
2018-12-08T07:43:23.081Z,4.33
2018-12-08T07:45:52.210Z,3.60
2018-12-08T07:48:21.308Z,3.80
2018-12-08T07:50:50.428Z,4.30
2018-12-08T07:53:19.530Z,4.10
2018-12-08T07:55:48.605Z,3.57
2018-12-08T07:58:17.783Z,3.57
2018-12-08T08:00:46.823Z,4.07
2018-12-08T08:03:15.933Z,3.40
2018-12-08T08:05:45.037Z,3.50
2018-12-08T08:08:14.795Z,3.97
2018-12-08T08:10:44.893Z,3.50
2018-12-08T08:13:14.048Z,3.83
2018-12-08T08:15:43.157Z,3.03
2018-12-08T08:18:12.235Z,3.73
2018-12-08T08:20:41.467Z,3.80
2018-12-08T08:23:10.581Z,3.50
2018-12-08T08:25:39.781Z,3.63
2018-12-08T08:28:09.028Z,3.77
2018-12-08T08:30:38.203Z,3.90
2018-12-08T08:33:07.282Z,4.53
2018-12-08T08:35:36.324Z,4.20
2018-12-08T08:38:05.550Z,3.63
2018-12-08T08:40:34.717Z,3.53
2018-12-08T08:43:03.790Z,3.87
2018-12-08T08:45:32.920Z,4.03
2018-12-08T08:48:02.797Z,3.57
2018-12-08T08:50:31.907Z,4.03
2018-12-08T08:53:03.009Z,4.00
2018-12-08T08:55:32.137Z,3.80
2018-12-08T08:58:01.251Z,3.80
2018-12-08T09:00:30.345Z,3.93
2018-12-08T09:02:59.408Z,4.47
2018-12-08T09:05:28.672Z,4.17
2018-12-08T09:07:58.272Z,3.60
2018-12-08T09:10:27.895Z,4.50
2018-12-08T09:12:57.051Z,4.07
2018-12-08T09:15:26.165Z,4.03
2018-12-08T09:17:55.350Z,4.07
2018-12-08T09:20:24.423Z,4.00
2018-12-08T09:22:53.481Z,3.93
2018-12-08T09:25:22.574Z,3.50
2018-12-08T09:27:51.617Z,4.13
2018-12-08T09:30:20.644Z,3.90
2018-12-08T09:32:49.740Z,4.87
2018-12-08T09:35:18.813Z,3.97
2018-12-08T09:37:47.972Z,3.50
2018-12-08T09:40:17.839Z,3.73
2018-12-08T09:42:46.868Z,4.93
2018-12-08T09:45:15.983Z,4.83
2018-12-08T09:47:45.075Z,3.77
2018-12-08T09:50:14.239Z,4.60
2018-12-08T09:52:43.355Z,3.40
2018-12-08T09:55:12.407Z,4.07
2018-12-08T09:57:41.474Z,4.27
2018-12-08T10:00:10.629Z,4.43
2018-12-08T10:02:40.262Z,4.07
2018-12-08T10:05:09.351Z,4.17
2018-12-08T10:07:39.025Z,3.83
2018-12-08T10:10:08.578Z,4.23
2018-12-08T10:12:37.640Z,4.33
2018-12-08T10:15:07.643Z,4.50
2018-12-08T10:17:36.812Z,4.00
2018-12-08T10:20:06.011Z,4.37
2018-12-08T10:22:35.061Z,4.47
2018-12-08T10:25:04.525Z,4.57
2018-12-08T10:27:33.706Z,4.37
2018-12-08T10:30:04.139Z,3.90
2018-12-08T10:32:33.206Z,4.57
2018-12-08T10:35:02.377Z,4.53
2018-12-08T10:37:31.559Z,4.30
2018-12-08T10:40:01.358Z,4.47
2018-12-08T10:42:30.458Z,4.33
2018-12-08T10:44:59.770Z,4.37
2018-12-08T10:47:28.882Z,4.73
2018-12-08T10:49:58.042Z,3.83
2018-12-08T10:52:27.126Z,4.67
2018-12-08T10:54:59.060Z,4.53
2018-12-08T10:57:28.179Z,4.27
2018-12-08T10:59:57.355Z,4.03
2018-12-08T11:02:31.765Z,4.10
2018-12-08T11:05:00.889Z,3.93
2018-12-08T11:07:30.094Z,4.10
2018-12-08T11:09:59.227Z,4.23
2018-12-08T11:12:28.395Z,4.27
2018-12-08T11:15:00.785Z,3.40
2018-12-08T11:17:28.653Z,4.20
2018-12-08T11:19:57.698Z,4.20
2018-12-08T11:22:26.708Z,3.83
2018-12-08T11:24:55.911Z,3.40
2018-12-08T11:27:24.983Z,3.40
2018-12-08T11:29:54.050Z,3.70
2018-12-08T11:32:23.128Z,3.80
2018-12-08T11:34:52.188Z,4.00
2018-12-08T11:37:21.401Z,3.43
2018-12-08T11:39:50.523Z,3.53
2018-12-08T11:42:19.557Z,3.83
2018-12-08T11:44:48.825Z,3.47
2018-12-08T11:47:17.880Z,3.43
2018-12-08T11:49:46.939Z,3.27
2018-12-08T11:52:16.070Z,2.67
2018-12-08T11:54:45.314Z,2.97
2018-12-08T11:57:14.431Z,2.90
2018-12-08T11:59:43.498Z,2.70
2018-12-08T12:02:16.535Z,2.90
2018-12-08T12:04:44.234Z,2.57
2018-12-08T12:07:14.308Z,2.57
2018-12-08T12:09:44.053Z,2.57
2018-12-08T12:12:13.817Z,2.93
2018-12-08T12:14:45.247Z,3.23
2018-12-08T12:17:14.418Z,3.23
2018-12-08T12:19:44.073Z,2.97
2018-12-08T12:22:13.186Z,3.07
2018-12-08T12:24:42.378Z,3.30
2018-12-08T12:27:11.419Z,3.70
2018-12-08T12:29:40.545Z,3.43
2018-12-08T12:32:09.657Z,4.10
2018-12-08T12:34:38.784Z,3.87
2018-12-08T12:37:07.922Z,3.57
2018-12-08T12:39:37.217Z,3.63
2018-12-08T12:42:06.295Z,3.83
2018-12-08T12:44:35.382Z,3.97
2018-12-08T12:47:04.550Z,4.00
2018-12-08T12:49:34.470Z,4.40
2018-12-08T12:52:03.639Z,4.13
2018-12-08T12:54:32.718Z,3.77
2018-12-08T12:57:01.822Z,4.33
2018-12-08T12:59:31.082Z,4.07
2018-12-08T13:02:00.265Z,4.47
2018-12-08T13:04:29.365Z,4.03
2018-12-08T13:06:58.471Z,4.40
2018-12-08T13:09:27.558Z,3.97
2018-12-08T13:11:57.156Z,4.03
2018-12-08T13:14:26.317Z,4.90
2018-12-08T13:16:55.377Z,4.60
2018-12-08T13:19:24.493Z,4.60
2018-12-08T13:21:53.661Z,4.60
2018-12-08T13:24:29.705Z,4.30
2018-12-08T13:26:58.962Z,4.73
2018-12-08T13:29:28.015Z,5.07
2018-12-08T13:31:57.253Z,5.17
2018-12-08T13:34:28.714Z,4.83
2018-12-08T13:36:57.795Z,4.83
2018-12-08T13:39:27.738Z,4.97
2018-12-08T13:41:56.848Z,5.70
2018-12-08T13:44:35.553Z,4.50
2018-12-08T13:47:04.893Z,5.17
2018-12-08T13:49:35.942Z,4.70
2018-12-08T13:52:05.491Z,4.53
2018-12-08T13:54:45.865Z,5.63
2018-12-08T13:57:14.942Z,6.23
2018-12-08T13:59:52.833Z,6.03
2018-12-08T14:02:21.965Z,5.57
2018-12-08T14:04:51.053Z,5.40
2018-12-08T14:07:20.198Z,5.53
2018-12-08T14:09:49.284Z,5.87
2018-12-08T14:12:18.459Z,5.57
2018-12-08T14:14:47.669Z,5.40
2018-12-08T14:17:16.879Z,5.53
2018-12-08T14:19:46.039Z,5.40
2018-12-08T14:22:15.136Z,5.40
2018-12-08T14:24:44.232Z,5.57
2018-12-08T14:27:13.333Z,5.70
2018-12-08T14:29:42.432Z,5.77
2018-12-08T14:32:11.553Z,5.50
2018-12-08T14:34:40.655Z,5.67
2018-12-08T14:37:09.764Z,5.20
2018-12-08T14:39:38.910Z,5.43
2018-12-08T14:42:08.755Z,5.60
2018-12-08T14:44:39.434Z,5.30
2018-12-08T14:47:08.741Z,4.97
2018-12-08T14:49:37.778Z,5.27
2018-12-08T14:52:06.942Z,4.90
2018-12-08T14:54:36.129Z,4.97
2018-12-08T14:57:05.244Z,4.53
2018-12-08T14:59:34.294Z,5.03
2018-12-08T15:02:03.979Z,5.20
2018-12-08T15:04:33.067Z,5.07
2018-12-08T15:07:02.140Z,5.90
2018-12-08T15:09:31.240Z,5.07
2018-12-08T15:12:00.949Z,5.40
2018-12-08T15:14:30.052Z,5.07
2018-12-08T15:16:59.197Z,4.67
2018-12-08T15:19:28.884Z,4.80
2018-12-08T15:21:57.973Z,4.83
2018-12-08T15:24:27.142Z,4.77
2018-12-08T15:26:56.231Z,5.10
2018-12-08T15:29:25.336Z,5.30
2018-12-08T15:31:54.499Z,4.90
2018-12-08T15:34:23.617Z,4.87
2018-12-08T15:36:52.964Z,4.73
2018-12-08T15:39:22.193Z,5.40
2018-12-08T15:41:51.265Z,5.23
2018-12-08T15:44:20.356Z,5.60
2018-12-08T15:46:49.585Z,5.37
2018-12-08T15:49:18.880Z,5.90
2018-12-08T15:51:48.037Z,5.97
2018-12-08T15:54:17.400Z,4.70
2018-12-08T15:56:46.742Z,4.53
2018-12-08T15:59:15.850Z,4.87
2018-12-08T16:01:44.912Z,4.83
2018-12-08T16:04:14.527Z,4.30
2018-12-08T16:06:43.655Z,4.67
2018-12-08T16:09:12.924Z,4.20
2018-12-08T16:11:42.062Z,4.53
2018-12-08T16:14:11.121Z,3.90
2018-12-08T16:16:40.219Z,3.83
2018-12-08T16:19:09.464Z,3.67
2018-12-08T16:21:38.661Z,3.67
2018-12-08T16:24:08.597Z,3.90
2018-12-08T16:26:37.681Z,2.60
2018-12-08T16:29:06.779Z,2.37
2018-12-08T16:31:35.946Z,2.30
2018-12-08T16:34:05.120Z,2.60
2018-12-08T16:36:34.204Z,2.27
2018-12-08T16:39:04.075Z,2.10
2018-12-08T16:41:33.209Z,2.40
2018-12-08T16:44:02.575Z,2.10
2018-12-08T16:46:31.691Z,2.17
2018-12-08T16:49:00.788Z,1.80
2018-12-08T16:51:29.861Z,1.80
2018-12-08T16:53:59.896Z,2.30
2018-12-08T16:56:29.081Z,2.10
2018-12-08T16:58:58.399Z,2.20
2018-12-08T17:01:27.780Z,2.00
2018-12-08T17:03:57.220Z,2.20
2018-12-08T17:06:26.450Z,2.33
2018-12-08T17:08:55.607Z,2.10
2018-12-08T17:11:24.777Z,1.93
2018-12-08T17:13:53.938Z,2.50
2018-12-08T17:16:23.006Z,2.40
2018-12-08T17:18:52.078Z,2.00
2018-12-08T17:21:21.303Z,2.33
2018-12-08T17:23:50.363Z,2.77
2018-12-08T17:26:19.496Z,2.47
2018-12-08T17:28:49.227Z,2.50
2018-12-08T17:31:18.304Z,2.47
2018-12-08T17:33:47.417Z,2.40
2018-12-08T17:36:16.467Z,2.50
2018-12-08T17:38:45.569Z,2.63
2018-12-08T17:41:14.694Z,2.67
2018-12-08T17:43:43.747Z,2.90
2018-12-08T17:46:15.746Z,3.10
2018-12-08T17:48:44.838Z,2.60
2018-12-08T17:51:14.037Z,3.10
2018-12-08T17:53:43.192Z,2.90
2018-12-08T17:56:12.303Z,2.53
2018-12-08T17:58:41.398Z,2.90
2018-12-08T18:01:10.595Z,3.07
2018-12-08T18:03:39.693Z,2.60
2018-12-08T18:06:08.885Z,2.57
2018-12-08T18:08:37.943Z,2.60
2018-12-08T18:11:07.361Z,2.47
2018-12-08T18:13:36.699Z,2.63
2018-12-08T18:16:05.755Z,3.20
2018-12-08T18:18:34.812Z,2.47
2018-12-08T18:21:04.631Z,2.40
2018-12-08T18:23:34.007Z,2.53
2018-12-08T18:26:03.207Z,2.43
2018-12-08T18:28:32.344Z,2.40
2018-12-08T18:31:01.370Z,2.33
2018-12-08T18:33:30.436Z,2.33
2018-12-08T18:35:59.536Z,2.50
2018-12-08T18:38:29.610Z,2.73
2018-12-08T18:40:58.803Z,2.33
2018-12-08T18:43:27.937Z,2.30
2018-12-08T18:45:57.060Z,3.27
2018-12-08T18:48:32.644Z,2.57
2018-12-08T18:51:01.887Z,2.30
2018-12-08T18:53:31.013Z,2.40
2018-12-08T18:56:00.177Z,2.30
2018-12-08T18:58:29.832Z,2.53
2018-12-08T19:00:58.885Z,2.60
2018-12-08T19:03:28.194Z,2.20
2018-12-08T19:05:57.257Z,2.33
2018-12-08T19:08:26.795Z,2.80
2018-12-08T19:10:56.042Z,2.33
2018-12-08T19:13:25.159Z,2.20
2018-12-08T19:15:54.182Z,2.53
2018-12-08T19:18:23.311Z,2.30
2018-12-08T19:20:52.372Z,2.20
2018-12-08T19:23:21.416Z,1.97
2018-12-08T19:25:50.478Z,2.20
2018-12-08T19:28:19.517Z,2.30
2018-12-08T19:30:48.562Z,2.20
2018-12-08T19:33:18.248Z,2.13
2018-12-08T19:35:47.354Z,2.27
2018-12-08T19:38:16.474Z,2.30
2018-12-08T19:40:45.646Z,2.20
2018-12-08T19:43:14.742Z,2.10
2018-12-08T19:45:50.452Z,2.10
2018-12-08T19:48:19.510Z,2.60
2018-12-08T19:50:48.619Z,2.20
2018-12-08T19:53:17.746Z,3.07
2018-12-08T19:55:46.985Z,2.50
2018-12-08T19:58:16.168Z,2.33
2018-12-08T20:00:45.365Z,2.70
2018-12-08T20:03:14.546Z,2.60
2018-12-08T20:05:43.694Z,2.60
2018-12-08T20:08:12.730Z,2.33
2018-12-08T20:10:41.986Z,2.37
2018-12-08T20:13:11.214Z,2.30
2018-12-08T20:15:40.329Z,2.87
2018-12-08T20:18:09.573Z,2.50
2018-12-08T20:20:38.814Z,2.60
2018-12-08T20:23:08.495Z,2.67
2018-12-08T20:25:37.610Z,3.00
2018-12-08T20:28:06.743Z,2.90
2018-12-08T20:30:35.895Z,2.70
2018-12-08T20:33:05.006Z,2.43
2018-12-08T20:35:34.125Z,2.90
2018-12-08T20:38:03.804Z,2.67
2018-12-08T20:40:32.957Z,3.37
2018-12-08T20:43:02.084Z,3.13
2018-12-08T20:45:31.165Z,3.07
2018-12-08T20:48:00.265Z,3.37
2018-12-08T20:50:29.447Z,2.90
2018-12-08T20:52:58.744Z,3.03
2018-12-08T20:55:28.593Z,3.10
2018-12-08T20:57:58.610Z,3.70
2018-12-08T21:00:27.775Z,3.63
2018-12-08T21:02:56.880Z,4.27
2018-12-08T21:05:25.963Z,3.83
2018-12-08T21:07:55.015Z,4.50
2018-12-08T21:10:24.393Z,4.50
2018-12-08T21:12:53.499Z,5.60
2018-12-08T21:15:22.678Z,5.03
2018-12-08T21:17:51.741Z,5.40
2018-12-08T21:20:20.853Z,5.07
2018-12-08T21:22:50.029Z,4.70
2018-12-08T21:25:19.234Z,5.00
2018-12-08T21:27:48.306Z,4.70
2018-12-08T21:30:17.410Z,5.03
2018-12-08T21:32:46.514Z,4.73
2018-12-08T21:35:16.462Z,4.73
2018-12-08T21:37:45.707Z,4.87
2018-12-08T21:40:27.131Z,5.07
2018-12-08T21:42:56.239Z,4.90
2018-12-08T21:45:26.271Z,5.70
2018-12-08T21:47:55.350Z,5.47
2018-12-08T21:50:24.557Z,5.67
2018-12-08T21:52:53.788Z,5.47
2018-12-08T21:55:22.913Z,5.87
2018-12-08T21:57:52.049Z,5.30
2018-12-08T22:00:21.192Z,5.20
2018-12-08T22:02:50.255Z,6.83
2018-12-08T22:05:19.430Z,6.40
2018-12-08T22:07:48.496Z,5.80
2018-12-08T22:10:17.679Z,6.17
2018-12-08T22:12:46.832Z,5.50
2018-12-08T22:15:17.703Z,5.80
2018-12-08T22:17:47.106Z,5.90
2018-12-08T22:20:16.166Z,5.77
2018-12-08T22:22:45.713Z,6.33
2018-12-08T22:25:14.804Z,6.73
2018-12-08T22:27:43.859Z,6.60
2018-12-08T22:30:12.966Z,7.17
2018-12-08T22:32:42.064Z,6.60
2018-12-08T22:35:11.170Z,6.07
2018-12-08T22:37:40.865Z,6.57
2018-12-08T22:40:10.383Z,6.73
2018-12-08T22:42:39.505Z,6.03
2018-12-08T22:45:08.727Z,6.80
2018-12-08T22:47:38.652Z,6.10
2018-12-08T22:50:09.029Z,6.17
2018-12-08T22:52:38.115Z,5.47
2018-12-08T22:55:07.367Z,5.70
2018-12-08T22:57:36.736Z,6.03
2018-12-08T23:00:15.723Z,5.20
2018-12-08T23:02:44.844Z,5.17
2018-12-08T23:05:14.046Z,4.90
2018-12-08T23:07:43.128Z,5.00
2018-12-08T23:10:12.329Z,4.83
2018-12-08T23:12:42.278Z,4.87
2018-12-08T23:15:11.435Z,4.80
2018-12-08T23:17:40.560Z,4.77
2018-12-08T23:20:09.767Z,5.10
2018-12-08T23:22:38.895Z,4.50
2018-12-08T23:25:08.135Z,5.03
2018-12-08T23:27:37.257Z,4.80
2018-12-08T23:30:06.618Z,4.30
2018-12-08T23:32:35.855Z,4.83
2018-12-08T23:35:05.358Z,4.70
2018-12-08T23:37:34.402Z,5.37
2018-12-08T23:40:03.590Z,5.00
2018-12-08T23:42:32.874Z,4.30
2018-12-08T23:45:02.085Z,5.00
2018-12-08T23:47:31.209Z,5.07
2018-12-08T23:50:00.249Z,4.67
2018-12-08T23:52:29.377Z,5.30
2018-12-08T23:55:05.568Z,4.40
2018-12-08T23:57:34.960Z,4.50
